createdAt,value
2017-02-11T00:00:09.103Z,16.72
2017-02-11T00:01:07.987Z,16.72
2017-02-11T00:02:08.402Z,16.72
2017-02-11T00:03:07.555Z,16.43
2017-02-11T00:04:07.960Z,16.91
2017-02-11T00:05:07.569Z,16.62
2017-02-11T00:06:07.969Z,16.62
2017-02-11T00:07:08.026Z,16.82
2017-02-11T00:08:07.983Z,16.62
2017-02-11T00:09:07.989Z,16.82
2017-02-11T00:10:08.097Z,16.61
2017-02-11T00:11:08.810Z,16.62
2017-02-11T00:12:08.061Z,16.52
2017-02-11T00:13:08.565Z,16.72
2017-02-11T00:14:08.071Z,16.72
2017-02-11T00:15:08.076Z,16.72
2017-02-11T00:16:08.087Z,16.72
2017-02-11T00:17:08.090Z,16.62
2017-02-11T00:18:08.184Z,16.62
2017-02-11T00:19:08.052Z,16.72
2017-02-11T00:20:08.059Z,16.62
2017-02-11T00:21:08.067Z,16.62
2017-02-11T00:22:07.732Z,16.72
2017-02-11T00:23:08.129Z,16.52
2017-02-11T00:24:08.935Z,16.62
2017-02-11T00:25:08.141Z,16.62
2017-02-11T00:26:08.099Z,16.82
2017-02-11T00:27:08.105Z,16.72
2017-02-11T00:28:08.160Z,16.91
2017-02-11T00:29:08.218Z,16.72
2017-02-11T00:30:07.727Z,16.82
2017-02-11T00:31:08.179Z,16.62
2017-02-11T00:32:07.789Z,16.82
2017-02-11T00:33:09.119Z,16.82
2017-02-11T00:34:07.803Z,16.62
2017-02-11T00:35:08.959Z,16.82
2017-02-11T00:36:08.166Z,16.72
2017-02-11T00:37:08.167Z,16.72
2017-02-11T00:38:08.176Z,16.82
2017-02-11T00:39:08.182Z,16.72
2017-02-11T00:40:08.241Z,16.71
2017-02-11T00:41:08.247Z,16.82
2017-02-11T00:42:08.251Z,16.72
2017-02-11T00:43:08.258Z,16.72
2017-02-11T00:44:08.212Z,16.72
2017-02-11T00:45:08.221Z,16.52
2017-02-11T00:46:09.330Z,16.62
2017-02-11T00:47:08.233Z,16.72
2017-02-11T00:48:08.342Z,16.82
2017-02-11T00:49:08.246Z,16.61
2017-02-11T00:50:08.302Z,16.52
2017-02-11T00:51:08.260Z,16.72
2017-02-11T00:52:08.266Z,16.91
2017-02-11T00:53:08.271Z,16.72
2017-02-11T00:54:07.930Z,16.62
2017-02-11T00:55:08.386Z,16.62
2017-02-11T00:56:08.392Z,16.71
2017-02-11T00:57:08.000Z,16.52
2017-02-11T00:58:08.803Z,16.72
2017-02-11T00:59:08.307Z,16.82
2017-02-11T01:00:08.364Z,16.61
2017-02-11T01:01:08.374Z,16.52
2017-02-11T01:02:08.378Z,16.82
2017-02-11T01:03:08.333Z,16.72
2017-02-11T01:04:08.388Z,16.62
2017-02-11T01:05:08.449Z,16.62
2017-02-11T01:06:07.954Z,16.82
2017-02-11T01:07:08.360Z,16.81
2017-02-11T01:08:09.567Z,16.72
2017-02-11T01:09:07.974Z,16.62
2017-02-11T01:10:08.374Z,16.62
2017-02-11T01:11:08.386Z,16.43
2017-02-11T01:12:08.424Z,16.82
2017-02-11T01:13:08.496Z,16.82
2017-02-11T01:14:08.453Z,16.72
2017-02-11T01:15:08.411Z,16.72
2017-02-11T01:16:08.463Z,16.9
2017-02-11T01:17:08.420Z,16.72
2017-02-11T01:18:08.475Z,16.52
2017-02-11T01:19:08.037Z,16.91
2017-02-11T01:20:08.490Z,16.72
2017-02-11T01:21:08.495Z,16.72
2017-02-11T01:22:08.455Z,16.72
2017-02-11T01:23:08.559Z,16.72
2017-02-11T01:24:08.465Z,16.82
2017-02-11T01:25:08.470Z,16.72
2017-02-11T01:26:08.528Z,16.72
2017-02-11T01:27:08.531Z,16.91
2017-02-11T01:28:08.491Z,16.82
2017-02-11T01:29:08.102Z,16.71
2017-02-11T01:30:08.501Z,16.72
2017-02-11T01:31:08.608Z,16.82
2017-02-11T01:32:08.515Z,16.71
2017-02-11T01:33:08.520Z,16.52
2017-02-11T01:34:08.528Z,16.82
2017-02-11T01:35:08.535Z,16.9
2017-02-11T01:36:08.589Z,16.72
2017-02-11T01:37:08.547Z,16.61
2017-02-11T01:38:08.551Z,16.62
2017-02-11T01:39:08.659Z,16.72
2017-02-11T01:40:08.569Z,16.81
2017-02-11T01:41:08.569Z,16.72
2017-02-11T01:42:08.605Z,16.9
2017-02-11T01:43:08.631Z,16.72
2017-02-11T01:44:08.691Z,16.62
2017-02-11T01:45:08.601Z,16.71
2017-02-11T01:46:08.602Z,16.72
2017-02-11T01:47:08.609Z,16.71
2017-02-11T01:48:08.670Z,16.71
2017-02-11T01:49:08.622Z,16.72
2017-02-11T01:50:08.979Z,16.62
2017-02-11T01:51:08.638Z,16.72
2017-02-11T01:52:08.740Z,16.72
2017-02-11T01:53:08.747Z,16.52
2017-02-11T01:54:08.736Z,16.62
2017-02-11T01:55:08.712Z,16.82
2017-02-11T01:56:08.765Z,16.72
2017-02-11T01:57:08.873Z,16.62
2017-02-11T01:58:09.281Z,16.72
2017-02-11T01:59:08.361Z,16.72
2017-02-11T02:00:08.744Z,16.71
2017-02-11T02:01:09.247Z,16.52
2017-02-11T02:02:08.757Z,16.9
2017-02-11T02:03:08.812Z,16.72
2017-02-11T02:04:08.767Z,16.72
2017-02-11T02:05:08.727Z,16.62
2017-02-11T02:06:08.730Z,16.62
2017-02-11T02:07:08.737Z,16.52
2017-02-11T02:08:08.845Z,16.52
2017-02-11T02:09:08.749Z,16.62
2017-02-11T02:10:08.658Z,16.82
2017-02-11T02:11:08.366Z,16.91
2017-02-11T02:12:08.872Z,16.62
2017-02-11T02:13:08.428Z,16.52
2017-02-11T02:14:09.529Z,16.61
2017-02-11T02:15:08.843Z,16.52
2017-02-11T02:16:08.800Z,16.71
2017-02-11T02:17:08.803Z,16.72
2017-02-11T02:18:08.856Z,16.52
2017-02-11T02:19:08.865Z,16.72
2017-02-11T02:20:08.871Z,16.52
2017-02-11T02:21:08.874Z,16.72
2017-02-11T02:22:08.437Z,16.52
2017-02-11T02:23:08.840Z,16.62
2017-02-11T02:24:08.896Z,16.72
2017-02-11T02:25:10.953Z,16.72
2017-02-11T02:26:08.865Z,16.43
2017-02-11T02:27:08.864Z,16.72
2017-02-11T02:28:08.973Z,16.61
2017-02-11T02:29:08.880Z,16.72
2017-02-11T02:30:08.884Z,16.52
2017-02-11T02:31:08.993Z,16.82
2017-02-11T02:32:08.898Z,16.72
2017-02-11T02:33:08.904Z,16.62
2017-02-11T02:34:08.916Z,16.72
2017-02-11T02:35:08.967Z,16.62
2017-02-11T02:36:09.897Z,16.61
2017-02-11T02:37:08.928Z,16.52
2017-02-11T02:38:08.937Z,16.72
2017-02-11T02:39:08.942Z,16.61
2017-02-11T02:40:08.998Z,16.62
2017-02-11T02:41:08.955Z,16.71
2017-02-11T02:42:09.013Z,16.52
2017-02-11T02:43:09.016Z,16.72
2017-02-11T02:44:09.024Z,16.52
2017-02-11T02:45:08.980Z,16.52
2017-02-11T02:46:09.020Z,16.72
2017-02-11T02:47:08.597Z,16.62
2017-02-11T02:48:09.101Z,16.62
2017-02-11T02:49:09.057Z,16.52
2017-02-11T02:50:08.664Z,16.62
2017-02-11T02:51:09.067Z,16.62
2017-02-11T02:52:09.076Z,16.52
2017-02-11T02:53:09.082Z,16.72
2017-02-11T02:54:09.088Z,16.82
2017-02-11T02:55:09.044Z,16.61
2017-02-11T02:56:09.052Z,16.61
2017-02-11T02:57:09.114Z,16.62
2017-02-11T02:58:09.112Z,16.52
2017-02-11T02:59:09.368Z,16.42
2017-02-11T03:00:09.076Z,16.72
2017-02-11T03:01:09.101Z,16.72
2017-02-11T03:02:09.087Z,16.72
2017-02-11T03:03:09.096Z,16.72
2017-02-11T03:04:09.101Z,16.72
2017-02-11T03:05:08.762Z,16.62
2017-02-11T03:06:09.165Z,16.61
2017-02-11T03:07:09.178Z,16.62
2017-02-11T03:08:09.178Z,16.52
2017-02-11T03:09:09.181Z,16.52
2017-02-11T03:10:08.795Z,16.71
2017-02-11T03:11:09.197Z,16.71
2017-02-11T03:12:09.202Z,16.52
2017-02-11T03:13:09.211Z,16.61
2017-02-11T03:14:09.166Z,16.72
2017-02-11T03:15:09.171Z,16.82
2017-02-11T03:16:09.254Z,16.71
2017-02-11T03:17:09.232Z,16.52
2017-02-11T03:18:09.342Z,16.71
2017-02-11T03:19:09.298Z,16.72
2017-02-11T03:20:09.252Z,16.61
2017-02-11T03:21:09.260Z,16.61
2017-02-11T03:22:09.218Z,16.71
2017-02-11T03:23:09.275Z,16.61
2017-02-11T03:24:09.278Z,16.62
2017-02-11T03:25:08.839Z,16.62
2017-02-11T03:26:09.294Z,16.52
2017-02-11T03:27:09.248Z,16.72
2017-02-11T03:28:09.354Z,16.71
2017-02-11T03:29:09.759Z,16.71
2017-02-11T03:30:09.267Z,16.52
2017-02-11T03:31:08.977Z,16.52
2017-02-11T03:32:08.983Z,16.61
2017-02-11T03:33:09.286Z,16.72
2017-02-11T03:34:09.293Z,16.52
2017-02-11T03:35:09.348Z,16.62
2017-02-11T03:36:09.210Z,16.71
2017-02-11T03:37:09.216Z,16.61
2017-02-11T03:38:09.371Z,16.71
2017-02-11T03:39:08.979Z,16.81
2017-02-11T03:40:09.941Z,16.72
2017-02-11T03:41:09.638Z,16.71
2017-02-11T03:42:09.441Z,16.71
2017-02-11T03:43:09.002Z,16.61
2017-02-11T03:44:09.404Z,16.71
2017-02-11T03:45:09.410Z,16.81
2017-02-11T03:46:09.364Z,16.72
2017-02-11T03:47:09.420Z,16.52
2017-02-11T03:48:09.388Z,16.71
2017-02-11T03:49:09.435Z,16.72
2017-02-11T03:50:09.045Z,16.71
2017-02-11T03:51:10.447Z,16.9
2017-02-11T03:52:09.453Z,16.81
2017-02-11T03:53:09.519Z,16.72
2017-02-11T03:54:09.020Z,16.72
2017-02-11T03:55:09.477Z,16.71
2017-02-11T03:56:09.437Z,16.81
2017-02-11T03:57:09.433Z,16.52
2017-02-11T03:58:09.145Z,16.52
2017-02-11T03:59:09.802Z,16.82
2017-02-11T04:00:09.453Z,16.72
2017-02-11T04:01:09.511Z,16.72
2017-02-11T04:02:10.123Z,16.43
2017-02-11T04:03:09.475Z,16.72
2017-02-11T04:04:09.732Z,16.62
2017-02-11T04:05:09.484Z,16.72
2017-02-11T04:06:09.592Z,16.62
2017-02-11T04:07:09.151Z,16.62
2017-02-11T04:08:09.553Z,16.62
2017-02-11T04:09:09.115Z,16.62
2017-02-11T04:10:09.121Z,16.72
2017-02-11T04:11:09.573Z,16.62
2017-02-11T04:12:09.578Z,16.72
2017-02-11T04:13:10.636Z,16.72
2017-02-11T04:14:09.539Z,16.62
2017-02-11T04:15:09.801Z,16.52
2017-02-11T04:16:09.206Z,16.52
2017-02-11T04:17:09.561Z,16.72
2017-02-11T04:18:09.619Z,16.62
2017-02-11T04:19:09.572Z,16.72
2017-02-11T04:20:09.579Z,16.62
2017-02-11T04:21:09.635Z,16.72
2017-02-11T04:22:09.694Z,16.62
2017-02-11T04:23:09.596Z,16.43
2017-02-11T04:24:10.703Z,16.43
2017-02-11T04:25:09.619Z,16.62
2017-02-11T04:26:09.914Z,16.62
2017-02-11T04:27:09.671Z,16.52
2017-02-11T04:28:09.628Z,16.62
2017-02-11T04:29:09.635Z,16.52
2017-02-11T04:30:09.694Z,16.52
2017-02-11T04:31:09.699Z,16.62
2017-02-11T04:32:09.268Z,16.72
2017-02-11T04:33:09.270Z,16.62
2017-02-11T04:34:09.717Z,16.52
2017-02-11T04:35:10.794Z,16.62
2017-02-11T04:36:09.678Z,16.52
2017-02-11T04:37:10.456Z,16.62
2017-02-11T04:38:09.691Z,16.52
2017-02-11T04:39:09.699Z,16.62
2017-02-11T04:40:09.758Z,16.72
2017-02-11T04:41:09.810Z,16.72
2017-02-11T04:42:09.755Z,16.72
2017-02-11T04:43:09.774Z,16.71
2017-02-11T04:44:09.779Z,16.82
2017-02-11T04:45:09.793Z,16.72
2017-02-11T04:46:10.741Z,16.52
2017-02-11T04:47:09.403Z,16.52
2017-02-11T04:48:10.552Z,16.62
2017-02-11T04:49:09.759Z,16.72
2017-02-11T04:50:09.816Z,16.62
2017-02-11T04:51:09.771Z,16.62
2017-02-11T04:52:09.832Z,16.62
2017-02-11T04:53:09.786Z,16.82
2017-02-11T04:54:09.793Z,16.52
2017-02-11T04:55:09.455Z,16.62
2017-02-11T04:56:10.106Z,16.72
2017-02-11T04:57:09.865Z,16.52
2017-02-11T04:58:09.870Z,16.62
2017-02-11T04:59:10.926Z,16.91
2017-02-11T05:00:09.830Z,16.72
2017-02-11T05:01:09.836Z,16.72
2017-02-11T05:02:09.891Z,16.72
2017-02-11T05:03:09.850Z,16.72
2017-02-11T05:04:09.856Z,16.72
2017-02-11T05:05:09.911Z,16.72
2017-02-11T05:06:10.122Z,16.71
2017-02-11T05:07:09.872Z,16.72
2017-02-11T05:08:09.538Z,16.62
2017-02-11T05:09:09.886Z,16.72
2017-02-11T05:10:09.495Z,16.82
2017-02-11T05:11:09.954Z,16.62
2017-02-11T05:12:09.958Z,16.62
2017-02-11T05:13:10.012Z,16.62
2017-02-11T05:14:09.525Z,16.82
2017-02-11T05:15:09.976Z,16.72
2017-02-11T05:16:09.983Z,16.72
2017-02-11T05:17:10.340Z,16.72
2017-02-11T05:18:09.598Z,16.82
2017-02-11T05:19:09.953Z,16.82
2017-02-11T05:20:09.858Z,16.52
2017-02-11T05:21:09.617Z,16.62
2017-02-11T05:22:10.071Z,16.9
2017-02-11T05:23:10.035Z,16.62
2017-02-11T05:24:10.083Z,16.72
2017-02-11T05:25:09.991Z,16.62
2017-02-11T05:26:10.097Z,16.52
2017-02-11T05:27:10.053Z,16.72
2017-02-11T05:28:10.260Z,16.52
2017-02-11T05:29:09.670Z,16.72
2017-02-11T05:30:10.075Z,16.72
2017-02-11T05:31:10.375Z,16.52
2017-02-11T05:32:10.033Z,16.91
2017-02-11T05:33:10.091Z,16.72
2017-02-11T05:34:10.097Z,16.72
2017-02-11T05:35:10.053Z,16.72
2017-02-11T05:36:10.106Z,16.72
2017-02-11T05:37:10.065Z,16.72
2017-02-11T05:38:10.070Z,16.72
2017-02-11T05:39:10.775Z,16.52
2017-02-11T05:40:10.089Z,16.72
2017-02-11T05:41:10.091Z,16.62
2017-02-11T05:42:10.145Z,16.62
2017-02-11T05:43:10.102Z,16.62
2017-02-11T05:44:10.111Z,16.72
2017-02-11T05:45:09.819Z,16.72
2017-02-11T05:46:09.727Z,16.82
2017-02-11T05:47:10.127Z,16.82
2017-02-11T05:48:09.791Z,16.62
2017-02-11T05:49:10.191Z,16.72
2017-02-11T05:50:11.148Z,16.62
2017-02-11T05:51:10.206Z,16.62
2017-02-11T05:52:10.410Z,16.82
2017-02-11T05:53:10.270Z,16.62
2017-02-11T05:54:10.222Z,16.72
2017-02-11T05:55:09.833Z,16.62
2017-02-11T05:56:10.236Z,16.82
2017-02-11T05:57:10.194Z,16.91
2017-02-11T05:58:09.852Z,16.72
2017-02-11T05:59:10.205Z,16.72
2017-02-11T06:00:09.815Z,16.82
2017-02-11T06:01:10.992Z,16.52
2017-02-11T06:02:10.524Z,16.52
2017-02-11T06:03:10.831Z,16.62
2017-02-11T06:04:10.785Z,16.62
2017-02-11T06:05:10.295Z,16.62
2017-02-11T06:06:10.295Z,16.72
2017-02-11T06:07:10.255Z,16.82
2017-02-11T06:08:10.262Z,16.72
2017-02-11T06:09:10.266Z,16.82
2017-02-11T06:10:10.275Z,16.72
2017-02-11T06:11:10.333Z,16.52
2017-02-11T06:12:09.892Z,16.91
2017-02-11T06:13:10.294Z,16.52
2017-02-11T06:14:10.006Z,16.72
2017-02-11T06:15:10.407Z,16.52
2017-02-11T06:16:10.365Z,16.62
2017-02-11T06:17:10.321Z,16.43
2017-02-11T06:18:10.325Z,16.72
2017-02-11T06:19:10.380Z,16.61
2017-02-11T06:20:09.942Z,16.72
2017-02-11T06:21:10.397Z,16.62
2017-02-11T06:22:09.954Z,16.72
2017-02-11T06:23:10.211Z,16.52
2017-02-11T06:24:10.519Z,16.82
2017-02-11T06:25:10.432Z,16.72
2017-02-11T06:26:10.431Z,16.91
2017-02-11T06:27:10.462Z,16.82
2017-02-11T06:28:10.438Z,16.9
2017-02-11T06:29:10.446Z,16.71
2017-02-11T06:30:10.058Z,16.52
2017-02-11T06:31:10.407Z,16.91
2017-02-11T06:32:10.413Z,16.91
2017-02-11T06:33:10.469Z,16.43
2017-02-11T06:34:10.727Z,16.82
2017-02-11T06:35:10.043Z,16.91
2017-02-11T06:36:10.837Z,16.91
2017-02-11T06:37:10.446Z,16.72
2017-02-11T06:38:10.503Z,16.72
2017-02-11T06:39:10.559Z,16.52
2017-02-11T06:40:10.464Z,16.82
2017-02-11T06:41:10.524Z,16.81
2017-02-11T06:42:10.505Z,16.72
2017-02-11T06:43:10.485Z,16.9
2017-02-11T06:44:10.544Z,16.82
2017-02-11T06:45:11.345Z,16.52
2017-02-11T06:46:10.604Z,16.52
2017-02-11T06:47:10.269Z,16.62
2017-02-11T06:48:10.565Z,16.62
2017-02-11T06:49:10.572Z,16.52
2017-02-11T06:50:10.585Z,16.52
2017-02-11T06:51:10.588Z,16.82
2017-02-11T06:52:10.594Z,16.52
2017-02-11T06:53:10.204Z,16.72
2017-02-11T06:54:10.208Z,16.43
2017-02-11T06:55:10.560Z,16.52
2017-02-11T06:56:10.219Z,16.43
2017-02-11T06:57:10.622Z,16.43
2017-02-11T06:58:10.930Z,16.72
2017-02-11T06:59:10.585Z,16.82
2017-02-11T07:00:10.592Z,16.62
2017-02-11T07:01:10.600Z,16.91
2017-02-11T07:02:10.658Z,16.91
2017-02-11T07:03:10.614Z,16.82
2017-02-11T07:04:10.668Z,16.91
2017-02-11T07:05:10.628Z,16.72
2017-02-11T07:06:10.283Z,16.91
2017-02-11T07:07:10.634Z,16.62
2017-02-11T07:08:10.248Z,16.62
2017-02-11T07:09:11.349Z,16.82
2017-02-11T07:10:10.260Z,16.43
2017-02-11T07:11:10.267Z,16.52
2017-02-11T07:12:10.371Z,16.72
2017-02-11T07:13:10.725Z,16.82
2017-02-11T07:14:10.783Z,16.72
2017-02-11T07:15:10.689Z,16.91
2017-02-11T07:16:10.696Z,16.62
2017-02-11T07:17:10.405Z,16.52
2017-02-11T07:18:10.758Z,16.72
2017-02-11T07:19:10.713Z,16.62
2017-02-11T07:20:11.175Z,16.71
2017-02-11T07:21:10.726Z,16.52
2017-02-11T07:22:10.845Z,16.72
2017-02-11T07:23:10.839Z,16.62
2017-02-11T07:24:10.795Z,16.62
2017-02-11T07:25:10.405Z,16.82
2017-02-11T07:26:10.757Z,16.62
2017-02-11T07:27:10.817Z,16.52
2017-02-11T07:28:10.818Z,16.43
2017-02-11T07:29:10.826Z,16.62
2017-02-11T07:30:10.780Z,16.72
2017-02-11T07:31:11.925Z,16.14
2017-02-11T07:32:10.845Z,15.86
2017-02-11T07:33:10.801Z,16.14
2017-02-11T07:34:10.908Z,15.77
2017-02-11T07:35:10.914Z,15.96
2017-02-11T07:36:10.869Z,15.68
2017-02-11T07:37:10.827Z,15.39
2017-02-11T07:38:10.437Z,14.9
2017-02-11T07:39:10.492Z,14.71
2017-02-11T07:40:10.894Z,14.53
2017-02-11T07:41:10.904Z,14.81
2017-02-11T07:42:10.907Z,14.72
2017-02-11T07:43:10.864Z,14.43
2017-02-11T07:44:10.524Z,14.43
2017-02-11T07:45:10.877Z,14.92
2017-02-11T07:46:10.884Z,14.14
2017-02-11T07:47:10.939Z,14.43
2017-02-11T07:48:10.897Z,14.44
2017-02-11T07:49:10.557Z,14.34
2017-02-11T07:50:10.911Z,14.34
2017-02-11T07:51:10.719Z,14.44
2017-02-11T07:52:10.929Z,14.06
2017-02-11T07:53:10.929Z,13.96
2017-02-11T07:54:10.936Z,13.86
2017-02-11T07:55:10.993Z,14.44
2017-02-11T07:56:10.997Z,14.54
2017-02-11T07:57:11.811Z,14.34
2017-02-11T07:58:10.962Z,14.25
2017-02-11T07:59:11.018Z,14.25
2017-02-11T08:00:11.028Z,14.44
2017-02-11T08:01:11.032Z,14.34
2017-02-11T08:02:11.690Z,14.34
2017-02-11T08:03:11.000Z,14.15
2017-02-11T08:04:11.056Z,13.86
2017-02-11T08:05:10.714Z,14.06
2017-02-11T08:06:10.621Z,13.76
2017-02-11T08:07:11.022Z,13.96
2017-02-11T08:08:11.080Z,13.96
2017-02-11T08:09:10.641Z,14.06
2017-02-11T08:10:11.094Z,14.44
2017-02-11T08:11:11.053Z,14.44
2017-02-11T08:12:11.107Z,14.06
2017-02-11T08:13:12.233Z,14.34
2017-02-11T08:14:11.121Z,14.34
2017-02-11T08:15:11.684Z,14.34
2017-02-11T08:16:10.739Z,13.86
2017-02-11T08:17:10.795Z,14.34
2017-02-11T08:18:11.151Z,14.15
2017-02-11T08:19:11.105Z,14.25
2017-02-11T08:20:11.163Z,14.15
2017-02-11T08:21:11.122Z,14.34
2017-02-11T08:22:11.147Z,14.25
2017-02-11T08:23:11.183Z,13.96
2017-02-11T08:24:12.140Z,14.25
2017-02-11T08:25:11.149Z,14.15
2017-02-11T08:26:11.882Z,14.15
2017-02-11T08:27:11.163Z,14.15
2017-02-11T08:28:11.221Z,14.15
2017-02-11T08:29:11.175Z,14.25
2017-02-11T08:30:11.182Z,14.06
2017-02-11T08:31:11.194Z,14.25
2017-02-11T08:32:10.853Z,14.06
2017-02-11T08:33:10.860Z,14.34
2017-02-11T08:34:11.213Z,14.15
2017-02-11T08:35:10.924Z,14.54
2017-02-11T08:36:11.224Z,14.25
2017-02-11T08:37:12.336Z,14.34
2017-02-11T08:38:11.296Z,14.34
2017-02-11T08:39:11.297Z,13.96
2017-02-11T08:40:10.910Z,14.44
2017-02-11T08:41:11.312Z,14.06
2017-02-11T08:42:11.318Z,14.25
2017-02-11T08:43:10.930Z,14.25
2017-02-11T08:44:10.941Z,14.06
2017-02-11T08:45:11.291Z,13.96
2017-02-11T08:46:11.348Z,14.34
2017-02-11T08:47:11.354Z,14.34
2017-02-11T08:48:11.313Z,14.25
2017-02-11T08:49:11.319Z,14.34
2017-02-11T08:50:11.381Z,14.54
2017-02-11T08:51:11.435Z,14.44
2017-02-11T08:52:11.389Z,14.06
2017-02-11T08:53:11.348Z,14.34
2017-02-11T08:54:11.355Z,14.25
2017-02-11T08:55:11.365Z,14.34
2017-02-11T08:56:11.023Z,14.34
2017-02-11T08:57:11.129Z,14.34
2017-02-11T08:58:11.435Z,14.34
2017-02-11T08:59:11.445Z,14.06
2017-02-11T09:00:11.449Z,14.34
2017-02-11T09:01:11.459Z,14.25
2017-02-11T09:02:11.409Z,14.15
2017-02-11T09:03:11.519Z,14.34
2017-02-11T09:04:11.477Z,14.34
2017-02-11T09:05:11.435Z,14.25
2017-02-11T09:06:11.442Z,14.25
2017-02-11T09:07:11.495Z,14.34
2017-02-11T09:08:11.755Z,14.44
2017-02-11T09:09:11.461Z,14.34
2017-02-11T09:10:11.466Z,14.34
2017-02-11T09:11:11.081Z,14.34
2017-02-11T09:12:11.535Z,14.34
2017-02-11T09:13:11.492Z,14.34
2017-02-11T09:14:11.546Z,14.44
2017-02-11T09:15:11.555Z,14.25
2017-02-11T09:16:11.563Z,14.44
2017-02-11T09:17:11.516Z,14.34
2017-02-11T09:18:11.527Z,14.44
2017-02-11T09:19:12.389Z,14.34
2017-02-11T09:20:11.645Z,14.25
2017-02-11T09:21:11.607Z,14.54
2017-02-11T09:22:11.210Z,14.15
2017-02-11T09:23:11.561Z,14.44
2017-02-11T09:24:11.569Z,14.44
2017-02-11T09:25:11.574Z,14.25
2017-02-11T09:26:11.239Z,14.25
2017-02-11T09:27:11.640Z,14.54
2017-02-11T09:28:11.252Z,14.15
2017-02-11T09:29:11.653Z,14.34
2017-02-11T09:30:12.710Z,14.34
2017-02-11T09:31:11.669Z,14.25
2017-02-11T09:32:12.025Z,14.34
2017-02-11T09:33:11.932Z,14.15
2017-02-11T09:34:11.742Z,14.25
2017-02-11T09:35:11.749Z,14.54
2017-02-11T09:36:11.707Z,14.15
2017-02-11T09:37:11.710Z,14.25
2017-02-11T09:38:11.671Z,14.44
2017-02-11T09:39:12.081Z,14.34
2017-02-11T09:40:11.733Z,14.44
2017-02-11T09:41:11.692Z,14.44
2017-02-11T09:42:11.998Z,14.25
2017-02-11T09:43:12.506Z,14.34
2017-02-11T09:44:11.760Z,14.15
2017-02-11T09:45:11.819Z,14.15
2017-02-11T09:46:11.331Z,14.15
2017-02-11T09:47:11.736Z,14.06
2017-02-11T09:48:11.840Z,14.34
2017-02-11T09:49:11.848Z,14.25
2017-02-11T09:50:11.807Z,14.34
2017-02-11T09:51:11.863Z,14.15
2017-02-11T09:52:11.773Z,14.15
2017-02-11T09:53:11.826Z,14.34
2017-02-11T09:54:12.986Z,14.25
2017-02-11T09:55:11.793Z,14.34
2017-02-11T09:56:11.847Z,14.06
2017-02-11T09:57:11.857Z,14.64
2017-02-11T09:58:11.915Z,14.34
2017-02-11T09:59:56.539Z,14.34
2017-02-11T10:00:11.483Z,14.34
2017-02-11T10:01:11.887Z,14.34
2017-02-11T10:02:11.500Z,14.25
2017-02-11T10:03:11.850Z,14.15
2017-02-11T10:04:11.912Z,14.34
2017-02-11T10:05:11.865Z,14.44
2017-02-11T10:06:11.870Z,14.06
2017-02-11T10:07:11.926Z,14.06
2017-02-11T10:08:11.886Z,14.25
2017-02-11T10:09:11.941Z,14.15
2017-02-11T10:10:11.899Z,14.44
2017-02-11T10:11:12.006Z,14.34
2017-02-11T10:12:11.916Z,14.25
2017-02-11T10:13:11.879Z,14.34
2017-02-11T10:14:12.081Z,14.44
2017-02-11T10:15:11.932Z,14.34
2017-02-11T10:16:11.847Z,14.06
2017-02-11T10:17:11.948Z,14.34
2017-02-11T10:18:12.008Z,14.15
2017-02-11T10:19:12.263Z,14.34
2017-02-11T10:20:11.970Z,14.15
2017-02-11T10:21:12.027Z,14.34
2017-02-11T10:22:12.036Z,14.06
2017-02-11T10:23:12.043Z,14.25
2017-02-11T10:24:12.051Z,14.15
2017-02-11T10:25:12.925Z,14.34
2017-02-11T10:26:11.619Z,14.15
2017-02-11T10:27:12.176Z,14.34
2017-02-11T10:28:12.027Z,14.34
2017-02-11T10:29:12.035Z,14.06
2017-02-11T10:30:11.697Z,14.54
2017-02-11T10:31:12.048Z,14.06
2017-02-11T10:32:12.110Z,13.96
2017-02-11T10:33:12.112Z,14.34
2017-02-11T10:34:12.198Z,14.34
2017-02-11T10:35:12.128Z,14.15
2017-02-11T10:36:12.968Z,14.34
2017-02-11T10:37:12.146Z,14.73
2017-02-11T10:38:12.799Z,14.83
2017-02-11T10:39:11.710Z,14.34
2017-02-11T10:40:11.770Z,14.15
2017-02-11T10:41:12.122Z,14.34
2017-02-11T10:42:12.125Z,14.25
2017-02-11T10:43:12.191Z,14.15
2017-02-11T10:44:12.192Z,14.44
2017-02-11T10:45:12.201Z,14.44
2017-02-11T10:46:12.655Z,14.54
2017-02-11T10:47:12.260Z,14.06
2017-02-11T10:48:12.225Z,14.83
2017-02-11T10:49:12.194Z,14.64
2017-02-11T10:50:12.235Z,14.44
2017-02-11T10:51:12.294Z,14.44
2017-02-11T10:52:12.247Z,14.73
2017-02-11T10:53:12.254Z,14.83
2017-02-11T10:54:12.320Z,14.44
2017-02-11T10:55:12.275Z,14.44
2017-02-11T10:56:12.483Z,14.44
2017-02-11T10:57:12.238Z,14.64
2017-02-11T10:58:12.241Z,14.54
2017-02-11T10:59:12.349Z,14.44
2017-02-11T11:00:12.254Z,14.54
2017-02-11T11:01:12.312Z,14.73
2017-02-11T11:02:11.930Z,14.54
2017-02-11T11:03:12.576Z,14.54
2017-02-11T11:04:12.283Z,14.44
2017-02-11T11:05:12.390Z,14.54
2017-02-11T11:06:12.367Z,14.44
2017-02-11T11:07:13.411Z,14.44
2017-02-11T11:08:12.362Z,14.44
2017-02-11T11:09:12.870Z,14.64
2017-02-11T11:10:12.327Z,14.44
2017-02-11T11:11:12.335Z,14.54
2017-02-11T11:12:12.439Z,14.43
2017-02-11T11:13:12.399Z,14.73
2017-02-11T11:14:12.358Z,14.44
2017-02-11T11:15:12.014Z,14.44
2017-02-11T11:16:12.471Z,14.34
2017-02-11T11:17:12.426Z,14.34
2017-02-11T11:18:12.434Z,14.73
2017-02-11T11:19:12.390Z,14.82
2017-02-11T11:20:12.399Z,14.63
2017-02-11T11:21:12.059Z,15.11
2017-02-11T11:22:12.515Z,14.92
2017-02-11T11:23:12.518Z,14.73
2017-02-11T11:24:12.476Z,14.44
2017-02-11T11:25:12.434Z,14.34
2017-02-11T11:26:12.493Z,14.64
2017-02-11T11:27:12.498Z,14.54
2017-02-11T11:28:12.505Z,14.64
2017-02-11T11:29:12.511Z,14.82
2017-02-11T11:30:12.469Z,14.54
2017-02-11T11:31:12.529Z,14.73
2017-02-11T11:32:12.089Z,14.44
2017-02-11T11:33:12.541Z,14.73
2017-02-11T11:34:12.099Z,15.01
2017-02-11T11:35:12.502Z,14.63
2017-02-11T11:36:12.563Z,14.44
2017-02-11T11:37:12.573Z,14.44
2017-02-11T11:38:12.180Z,14.64
2017-02-11T11:39:12.636Z,15.12
2017-02-11T11:40:12.940Z,14.83
2017-02-11T11:41:12.545Z,14.73
2017-02-11T11:42:12.560Z,14.64
2017-02-11T11:43:12.569Z,14.44
2017-02-11T11:44:12.570Z,14.54
2017-02-11T11:45:12.627Z,14.83
2017-02-11T11:46:12.583Z,14.54
2017-02-11T11:47:12.641Z,14.92
2017-02-11T11:48:12.249Z,14.64
2017-02-11T11:49:12.703Z,15.12
2017-02-11T11:50:12.714Z,14.73
2017-02-11T11:51:13.174Z,14.92
2017-02-11T11:52:12.680Z,14.92
2017-02-11T11:53:12.681Z,14.82
2017-02-11T11:54:12.742Z,15.02
2017-02-11T11:55:12.696Z,14.82
2017-02-11T11:56:12.705Z,15.11
2017-02-11T11:57:12.712Z,14.73
2017-02-11T11:58:12.669Z,14.73
2017-02-11T11:59:12.736Z,15.12
2017-02-11T12:00:12.731Z,14.83
2017-02-11T12:01:12.744Z,14.92
2017-02-11T12:02:13.550Z,14.54
2017-02-11T12:03:12.360Z,14.73
2017-02-11T12:04:12.962Z,14.73
2017-02-11T12:05:12.771Z,14.92
2017-02-11T12:06:12.328Z,14.83
2017-02-11T12:07:12.731Z,14.73
2017-02-11T12:08:12.791Z,15.12
2017-02-11T12:09:12.796Z,14.73
2017-02-11T12:10:12.409Z,14.73
2017-02-11T12:11:12.367Z,14.83
2017-02-11T12:12:12.770Z,14.73
2017-02-11T12:13:12.780Z,14.64
2017-02-11T12:14:12.869Z,14.53
2017-02-11T12:15:13.791Z,14.63
2017-02-11T12:16:12.798Z,14.64
2017-02-11T12:17:12.806Z,14.53
2017-02-11T12:18:12.814Z,14.82
2017-02-11T12:19:12.818Z,14.73
2017-02-11T12:20:12.482Z,14.64
2017-02-11T12:21:12.883Z,14.73
2017-02-11T12:22:12.891Z,14.73
2017-02-11T12:23:12.849Z,14.73
2017-02-11T12:24:12.856Z,14.73
2017-02-11T12:25:12.963Z,14.82
2017-02-11T12:26:14.053Z,14.73
2017-02-11T12:27:12.977Z,14.82
2017-02-11T12:28:12.884Z,14.82
2017-02-11T12:29:12.890Z,14.82
2017-02-11T12:30:12.901Z,14.73
2017-02-11T12:31:12.955Z,14.82
2017-02-11T12:32:12.910Z,14.92
2017-02-11T12:33:12.969Z,14.73
2017-02-11T12:34:12.979Z,14.82
2017-02-11T12:35:13.082Z,14.92
2017-02-11T12:36:12.991Z,14.82
2017-02-11T12:37:13.398Z,14.92
2017-02-11T12:38:13.054Z,14.82
2017-02-11T12:39:12.962Z,14.82
2017-02-11T12:40:13.017Z,14.82
2017-02-11T12:41:12.579Z,14.92
2017-02-11T12:42:12.587Z,14.63
2017-02-11T12:43:13.038Z,14.53
2017-02-11T12:44:12.997Z,14.92
2017-02-11T12:45:13.053Z,14.63
2017-02-11T12:46:13.461Z,14.63
2017-02-11T12:47:13.017Z,14.82
2017-02-11T12:48:13.025Z,14.92
2017-02-11T12:49:13.037Z,14.82
2017-02-11T12:50:13.091Z,14.92
2017-02-11T12:51:13.048Z,14.92
2017-02-11T12:52:13.055Z,14.64